Time,TemperatureF,DewpointF,PressureIn,WindDirection,WindDirectionDegrees,WindSpeedMPH,WindSpeedGustMPH,Humidity,HourlyPrecipIn,Conditions,Clouds,dailyrainin,SoftwareType,DateUTC
2013-03-19 00:00:00,40.3,26.6,30.14,East,91,29.0,34.0,58,0.00,,,0.00,meteohub,2013-03-19 04:00:00,
2013-03-19 00:02:00,40.3,26.6,30.14,East,96,28.0,33.0,58,0.00,,,0.00,meteohub,2013-03-19 04:02:00,
2013-03-19 00:07:00,40.3,26.6,30.14,East,96,28.0,33.0,58,0.00,,,0.00,meteohub,2013-03-19 04:07:00,
2013-03-19 00:12:00,40.3,26.6,30.14,East,100,26.0,33.0,58,0.00,,,0.00,meteohub,2013-03-19 04:12:00,
2013-03-19 00:17:00,40.3,26.6,30.13,East,94,24.0,32.0,58,0.00,,,0.00,meteohub,2013-03-19 04:17:00,
2013-03-19 00:22:00,40.3,26.6,30.12,East,98,30.0,32.0,58,0.00,,,0.00,meteohub,2013-03-19 04:22:00,
2013-03-19 00:27:00,40.1,26.6,30.12,East,99,27.0,33.0,58,0.00,,,0.00,meteohub,2013-03-19 04:27:00,
2013-03-19 00:33:00,40.1,26.6,30.11,East,95,29.0,34.0,58,0.00,,,0.00,meteohub,2013-03-19 04:33:00,
2013-03-19 00:38:00,40.1,26.6,30.10,East,97,27.0,35.0,58,0.01,,,0.01,meteohub,2013-03-19 04:38:00,
2013-03-19 00:43:00,40.1,26.6,30.10,ESE,107,25.0,35.0,58,0.01,,,0.01,meteohub,2013-03-19 04:43:00,
2013-03-19 00:48:00,40.1,27.0,30.09,ESE,102,23.0,35.0,59,0.02,,,0.02,meteohub,2013-03-19 04:48:00,
2013-03-19 00:53:00,39.9,26.8,30.09,East,93,32.0,36.0,59,0.02,,,0.02,meteohub,2013-03-19 04:53:00,
2013-03-19 00:58:00,39.9,26.8,30.08,East,92,29.0,36.0,59,0.02,,,0.02,meteohub,2013-03-19 04:58:00,
2013-03-19 01:03:00,39.9,26.8,30.07,East,98,35.0,36.0,59,0.02,,,0.02,meteohub,2013-03-19 05:03:00,
2013-03-19 01:08:00,39.9,26.8,30.07,East,92,34.0,37.0,59,0.03,,,0.03,meteohub,2013-03-19 05:08:00,
2013-03-19 01:13:00,39.9,26.8,30.06,East,90,34.0,37.0,59,0.03,,,0.03,meteohub,2013-03-19 05:13:00,
2013-03-19 01:18:00,39.9,26.8,30.07,East,92,28.0,37.0,59,0.03,,,0.03,meteohub,2013-03-19 05:18:00,
2013-03-19 01:23:00,39.9,26.8,30.06,East,87,32.0,38.0,59,0.03,,,0.03,meteohub,2013-03-19 05:23:00,
2013-03-19 01:28:00,39.9,27.1,30.06,East,90,30.0,39.0,60,0.03,,,0.03,meteohub,2013-03-19 05:28:00,
2013-03-19 01:33:00,39.9,27.1,30.06,East,94,27.0,39.0,60,0.04,,,0.04,meteohub,2013-03-19 05:33:00,
2013-03-19 01:39:00,39.7,27.0,30.05,East,92,28.0,39.0,60,0.03,,,0.04,meteohub,2013-03-19 05:39:00,
2013-03-19 01:44:00,39.7,27.0,30.04,East,89,33.0,39.0,60,0.03,,,0.04,meteohub,2013-03-19 05:44:00,
2013-03-19 01:49:00,39.7,27.0,30.04,East,88,31.0,37.0,60,0.02,,,0.04,meteohub,2013-03-19 05:49:00,
2013-03-19 01:54:00,39.7,27.0,30.04,East,83,27.0,39.0,60,0.02,,,0.04,meteohub,2013-03-19 05:54:00,
2013-03-19 01:59:00,39.7,27.0,30.03,East,91,26.0,39.0,60,0.03,,,0.05,meteohub,2013-03-19 05:59:00,
2013-03-19 02:04:00,39.7,27.0,30.04,East,92,31.0,38.0,60,0.02,,,0.05,meteohub,2013-03-19 06:04:00,
2013-03-19 02:09:00,39.7,27.0,30.03,East,94,35.0,38.0,60,0.02,,,0.05,meteohub,2013-03-19 06:09:00,
2013-03-19 02:14:00,39.7,27.0,30.03,East,90,34.0,38.0,60,0.02,,,0.05,meteohub,2013-03-19 06:14:00,
2013-03-19 02:19:00,39.7,27.3,30.03,East,90,33.0,36.0,61,0.02,,,0.05,meteohub,2013-03-19 06:19:00,
2013-03-19 02:24:00,39.7,27.3,30.02,East,98,36.0,37.0,61,0.03,,,0.06,meteohub,2013-03-19 06:24:00,
2013-03-19 02:29:00,39.7,27.3,30.01,East,88,28.0,37.0,61,0.03,,,0.06,meteohub,2013-03-19 06:29:00,
2013-03-19 02:35:00,39.7,27.3,30.01,East,88,29.0,37.0,61,0.02,,,0.06,meteohub,2013-03-19 06:35:00,
2013-03-19 02:40:00,39.7,27.3,30.01,ESE,103,33.0,38.0,61,0.02,,,0.06,meteohub,2013-03-19 06:40:00,
2013-03-19 02:45:00,39.7,27.3,30.00,East,90,32.0,38.0,61,0.02,,,0.06,meteohub,2013-03-19 06:45:00,
2013-03-19 02:50:00,39.7,27.3,30.00,East,90,33.0,38.0,61,0.02,,,0.06,meteohub,2013-03-19 06:50:00,
2013-03-19 02:55:00,39.7,27.3,29.98,East,90,33.0,39.0,61,0.02,,,0.07,meteohub,2013-03-19 06:55:00,
2013-03-19 03:00:00,39.7,27.3,29.97,East,82,30.0,40.0,61,0.02,,,0.07,meteohub,2013-03-19 07:00:00,
2013-03-19 03:05:00,39.9,27.5,29.97,East,98,35.0,41.0,61,0.02,,,0.07,meteohub,2013-03-19 07:05:00,
2013-03-19 03:11:00,39.9,27.5,29.96,East,88,32.0,41.0,61,0.02,,,0.07,meteohub,2013-03-19 07:11:00,
2013-03-19 03:16:00,39.9,27.5,29.97,East,92,31.0,41.0,61,0.02,,,0.08,meteohub,2013-03-19 07:16:00,
2013-03-19 03:21:00,39.9,27.5,29.98,East,85,29.0,41.0,61,0.02,,,0.08,meteohub,2013-03-19 07:21:00,
2013-03-19 03:26:00,39.9,27.5,29.99,East,89,32.0,41.0,61,0.02,,,0.08,meteohub,2013-03-19 07:26:00,
2013-03-19 03:31:00,39.9,27.5,29.98,East,79,32.0,41.0,61,0.02,,,0.08,meteohub,2013-03-19 07:31:00,
2013-03-19 03:36:00,39.9,28.0,29.98,East,86,33.0,39.0,62,0.03,,,0.09,meteohub,2013-03-19 07:36:00,
2013-03-19 03:42:00,39.9,28.0,29.98,East,86,28.0,37.0,62,0.04,,,0.10,meteohub,2013-03-19 07:42:00,
2013-03-19 03:47:00,39.9,28.0,29.98,East,91,27.0,37.0,62,0.04,,,0.10,meteohub,2013-03-19 07:47:00,
2013-03-19 03:52:00,39.9,28.0,29.97,East,90,27.0,36.0,62,0.03,,,0.10,meteohub,2013-03-19 07:52:00,
2013-03-19 03:57:00,39.9,28.0,29.97,East,93,25.0,36.0,62,0.03,,,0.10,meteohub,2013-03-19 07:57:00,
2013-03-19 04:02:00,39.9,28.0,29.96,East,90,32.0,35.0,62,0.04,,,0.11,meteohub,2013-03-19 08:02:00,
2013-03-19 04:07:00,39.9,28.0,29.96,East,91,33.0,38.0,62,0.04,,,0.11,meteohub,2013-03-19 08:07:00,
2013-03-19 04:12:00,39.9,28.0,29.96,East,94,30.0,38.0,62,0.04,,,0.12,meteohub,2013-03-19 08:12:00,
2013-03-19 04:17:00,40.1,28.0,29.96,East,91,24.0,38.0,62,0.04,,,0.12,meteohub,2013-03-19 08:17:00,
2013-03-19 04:22:00,40.1,28.0,29.96,East,84,28.0,37.0,62,0.04,,,0.12,meteohub,2013-03-19 08:22:00,
2013-03-19 04:27:00,40.1,28.0,29.96,East,79,27.0,36.0,62,0.04,,,0.12,meteohub,2013-03-19 08:27:00,
2013-03-19 04:32:00,40.1,28.0,29.95,ENE,77,25.0,36.0,62,0.04,,,0.12,meteohub,2013-03-19 08:32:00,
2013-03-19 04:37:00,40.1,28.0,29.95,East,82,29.0,38.0,62,0.03,,,0.12,meteohub,2013-03-19 08:37:00,
2013-03-19 04:42:00,40.1,28.0,29.94,East,86,28.0,38.0,62,0.02,,,0.12,meteohub,2013-03-19 08:42:00,
2013-03-19 04:47:00,40.1,28.0,29.94,East,84,33.0,38.0,62,0.03,,,0.13,meteohub,2013-03-19 08:47:00,
2013-03-19 04:52:00,40.1,28.0,29.94,East,88,31.0,37.0,62,0.03,,,0.13,meteohub,2013-03-19 08:52:00,
2013-03-19 04:57:00,40.1,28.0,29.93,ENE,71,29.0,37.0,62,0.03,,,0.13,meteohub,2013-03-19 08:57:00,
2013-03-19 05:02:00,40.3,28.2,29.92,East,82,30.0,38.0,62,0.03,,,0.14,meteohub,2013-03-19 09:02:00,
2013-03-19 05:08:00,40.3,28.2,29.92,East,86,26.0,39.0,62,0.03,,,0.14,meteohub,2013-03-19 09:08:00,
2013-03-19 05:13:00,40.3,28.2,29.92,ENE,77,34.0,39.0,62,0.02,,,0.14,meteohub,2013-03-19 09:13:00,
2013-03-19 05:18:00,40.3,28.8,29.91,East,82,33.0,40.0,63,0.02,,,0.14,meteohub,2013-03-19 09:18:00,
2013-03-19 05:23:00,40.3,28.8,29.91,East,84,39.0,45.0,63,0.02,,,0.14,meteohub,2013-03-19 09:23:00,
2013-03-19 05:28:00,40.3,28.8,29.92,ENE,76,32.0,45.0,63,0.02,,,0.14,meteohub,2013-03-19 09:28:00,
2013-03-19 05:33:00,40.5,28.9,29.91,East,84,31.0,45.0,63,0.02,,,0.14,meteohub,2013-03-19 09:33:00,
2013-03-19 05:38:00,40.5,28.9,29.91,ENE,71,32.0,40.0,63,0.02,,,0.14,meteohub,2013-03-19 09:38:00,
2013-03-19 05:43:00,40.5,28.9,29.90,ENE,77,35.0,40.0,63,0.01,,,0.14,meteohub,2013-03-19 09:43:00,
2013-03-19 05:48:00,40.5,28.9,29.90,East,81,30.0,40.0,63,0.01,,,0.14,meteohub,2013-03-19 09:48:00,
2013-03-19 05:53:00,40.5,28.9,29.90,East,91,34.0,40.0,63,0.02,,,0.15,meteohub,2013-03-19 09:53:00,
2013-03-19 05:59:00,40.5,28.9,29.88,East,79,31.0,41.0,63,0.01,,,0.15,meteohub,2013-03-19 09:59:00,
2013-03-19 06:04:00,40.5,28.9,29.88,East,97,37.0,44.0,63,0.01,,,0.15,meteohub,2013-03-19 10:04:00,
2013-03-19 06:09:00,40.6,29.1,29.89,ENE,73,36.0,44.0,63,0.01,,,0.15,meteohub,2013-03-19 10:09:00,
2013-03-19 06:14:00,40.6,29.1,29.88,East,87,32.0,45.0,63,0.01,,,0.15,meteohub,2013-03-19 10:14:00,
2013-03-19 06:19:00,40.6,29.5,29.88,East,93,31.0,45.0,64,0.01,,,0.15,meteohub,2013-03-19 10:19:00,
2013-03-19 06:24:00,40.6,29.5,29.87,East,84,37.0,44.0,64,0.01,,,0.15,meteohub,2013-03-19 10:24:00,
2013-03-19 06:29:00,40.6,29.5,29.85,ENE,76,46.0,46.0,64,0.02,,,0.16,meteohub,2013-03-19 10:29:00,
2013-03-19 06:34:00,40.6,29.5,29.89,East,82,27.0,50.0,64,0.02,,,0.16,meteohub,2013-03-19 10:34:00,
2013-03-19 06:39:00,40.6,29.5,29.89,ENE,71,31.0,50.0,64,0.02,,,0.16,meteohub,2013-03-19 10:39:00,
2013-03-19 06:44:00,40.6,29.5,29.86,ENE,67,35.0,50.0,64,0.02,,,0.16,meteohub,2013-03-19 10:44:00,
2013-03-19 06:50:00,40.6,29.5,29.87,East,86,32.0,44.0,64,0.02,,,0.16,meteohub,2013-03-19 10:50:00,
2013-03-19 06:55:00,40.6,29.5,29.86,ENE,73,31.0,41.0,64,0.01,,,0.16,meteohub,2013-03-19 10:55:00,
2013-03-19 07:00:00,40.6,29.5,29.86,ENE,68,40.0,41.0,64,0.01,,,0.16,meteohub,2013-03-19 11:00:00,
2013-03-19 07:05:00,40.8,29.7,29.85,ENE,76,40.0,42.0,64,0.01,,,0.16,meteohub,2013-03-19 11:05:00,
2013-03-19 07:10:00,40.8,29.7,29.86,East,82,25.0,45.0,64,0.01,,,0.16,meteohub,2013-03-19 11:10:00,
2013-03-19 07:15:00,40.8,29.7,29.86,East,79,39.0,45.0,64,0.01,,,0.17,meteohub,2013-03-19 11:15:00,
2013-03-19 07:20:00,40.8,29.7,29.85,ENE,76,39.0,44.0,64,0.01,,,0.17,meteohub,2013-03-19 11:20:00,
2013-03-19 07:25:00,41.0,29.8,29.84,East,86,42.0,42.0,64,0.01,,,0.17,meteohub,2013-03-19 11:25:00,
2013-03-19 07:30:00,41.0,29.8,29.83,East,84,35.0,42.0,64,0.01,,,0.17,meteohub,2013-03-19 11:30:00,
2013-03-19 07:36:00,41.0,30.2,29.83,East,80,38.0,47.0,65,0.01,,,0.17,meteohub,2013-03-19 11:36:00,
2013-03-19 07:41:00,41.0,30.2,29.83,ENE,73,31.0,47.0,65,0.01,,,0.17,meteohub,2013-03-19 11:41:00,
2013-03-19 07:46:00,41.0,30.2,29.83,ENE,74,36.0,47.0,65,0.01,,,0.17,meteohub,2013-03-19 11:46:00,
2013-03-19 07:51:00,41.0,30.2,29.83,ENE,71,31.0,44.0,65,0.02,,,0.18,meteohub,2013-03-19 11:51:00,
2013-03-19 07:56:00,41.2,30.4,29.81,ENE,69,41.0,43.0,65,0.02,,,0.18,meteohub,2013-03-19 11:56:00,
2013-03-19 08:01:00,41.2,30.4,29.81,ENE,77,40.0,46.0,65,0.02,,,0.18,meteohub,2013-03-19 12:01:00,
2013-03-19 08:07:00,41.4,30.0,29.81,East,82,42.0,46.0,64,0.02,,,0.18,meteohub,2013-03-19 12:07:00,
2013-03-19 08:12:00,41.5,29.8,29.81,East,79,32.0,46.0,63,0.01,,,0.18,meteohub,2013-03-19 12:12:00,
2013-03-19 08:17:00,41.9,30.6,29.81,ENE,75,38.0,45.0,64,0.01,,,0.18,meteohub,2013-03-19 12:17:00,
2013-03-19 08:22:00,42.1,30.7,29.80,ENE,69,36.0,45.0,64,0.02,,,0.19,meteohub,2013-03-19 12:22:00,
2013-03-19 08:27:00,42.3,30.6,29.80,East,86,31.0,45.0,63,0.02,,,0.19,meteohub,2013-03-19 12:27:00,
2013-03-19 08:32:00,42.3,30.9,29.80,ENE,76,34.0,48.0,64,0.03,,,0.20,meteohub,2013-03-19 12:32:00,
2013-03-19 08:37:00,42.3,30.9,29.79,East,94,41.0,48.0,64,0.03,,,0.20,meteohub,2013-03-19 12:37:00,
2013-03-19 08:42:00,42.3,30.9,29.79,ENE,78,40.0,44.0,64,0.03,,,0.20,meteohub,2013-03-19 12:42:00,
2013-03-19 08:47:00,42.1,31.1,29.79,East,87,34.0,46.0,65,0.02,,,0.20,meteohub,2013-03-19 12:47:00,
2013-03-19 08:52:00,42.1,31.1,29.79,ENE,73,29.0,46.0,65,0.03,,,0.21,meteohub,2013-03-19 12:52:00,
2013-03-19 08:57:00,42.1,31.1,29.79,East,79,40.0,46.0,65,0.03,,,0.21,meteohub,2013-03-19 12:57:00,
2013-03-19 09:02:00,42.1,31.1,29.79,ENE,76,35.0,44.0,65,0.03,,,0.21,meteohub,2013-03-19 13:02:00,
2013-03-19 09:07:00,42.1,31.1,29.79,East,87,30.0,42.0,65,0.03,,,0.21,meteohub,2013-03-19 13:07:00,
2013-03-19 09:12:00,42.1,31.1,29.79,ENE,75,33.0,42.0,65,0.03,,,0.21,meteohub,2013-03-19 13:12:00,
2013-03-19 09:17:00,42.1,31.1,29.77,ENE,72,44.0,44.0,65,0.02,,,0.21,meteohub,2013-03-19 13:17:00,
2013-03-19 09:22:00,42.1,31.1,29.77,East,84,32.0,46.0,65,0.02,,,0.21,meteohub,2013-03-19 13:22:00,
2013-03-19 09:27:00,42.3,30.9,29.75,East,84,38.0,46.0,64,0.02,,,0.21,meteohub,2013-03-19 13:27:00,
2013-03-19 09:32:00,42.6,31.3,29.75,East,83,30.0,48.0,64,0.02,,,0.22,meteohub,2013-03-19 13:32:00,
2013-03-19 09:38:00,43.0,31.6,29.74,ENE,78,37.0,48.0,64,0.02,,,0.22,meteohub,2013-03-19 13:38:00,
2013-03-19 09:43:00,43.0,31.6,29.74,East,81,34.0,48.0,64,0.02,,,0.22,meteohub,2013-03-19 13:43:00,
2013-03-19 09:48:00,43.3,32.0,29.74,East,80,31.0,47.0,64,0.02,,,0.22,meteohub,2013-03-19 13:48:00,
2013-03-19 09:53:00,43.3,32.0,29.75,ENE,67,28.0,47.0,64,0.01,,,0.22,meteohub,2013-03-19 13:53:00,
2013-03-19 09:58:00,43.3,32.0,29.75,ENE,75,30.0,47.0,64,0.01,,,0.22,meteohub,2013-03-19 13:58:00,
2013-03-19 10:03:00,43.3,32.0,29.75,ENE,68,28.0,44.0,64,0.01,,,0.22,meteohub,2013-03-19 14:03:00,
2013-03-19 10:09:00,43.3,32.0,29.76,ENE,71,27.0,41.0,64,0.01,,,0.22,meteohub,2013-03-19 14:09:00,
2013-03-19 10:14:00,43.3,32.0,29.77,ENE,59,31.0,37.0,64,0.01,,,0.22,meteohub,2013-03-19 14:14:00,
2013-03-19 10:19:00,43.3,32.0,29.78,ENE,59,28.0,37.0,64,0.01,,,0.22,meteohub,2013-03-19 14:19:00,
2013-03-19 10:24:00,43.5,32.2,29.78,NE,54,28.0,37.0,64,0.01,,,0.22,meteohub,2013-03-19 14:24:00,
2013-03-19 10:29:00,43.5,32.2,29.77,ENE,59,21.0,37.0,64,0.01,,,0.22,meteohub,2013-03-19 14:29:00,
2013-03-19 10:34:00,43.5,32.2,29.77,ENE,59,30.0,34.0,64,0.00,,,0.22,meteohub,2013-03-19 14:34:00,
2013-03-19 10:39:00,43.5,32.2,29.76,ENE,73,34.0,35.0,64,0.00,,,0.22,meteohub,2013-03-19 14:39:00,
2013-03-19 10:44:00,43.5,32.2,29.75,ENE,67,31.0,35.0,64,0.00,,,0.22,meteohub,2013-03-19 14:44:00,
2013-03-19 10:49:00,43.5,32.2,29.74,ENE,70,29.0,37.0,64,0.00,,,0.22,meteohub,2013-03-19 14:49:00,
2013-03-19 10:54:00,43.5,32.5,29.75,ENE,67,20.0,37.0,65,0.00,,,0.22,meteohub,2013-03-19 14:54:00,
2013-03-19 10:59:00,43.5,32.5,29.74,ENE,73,30.0,37.0,65,0.00,,,0.22,meteohub,2013-03-19 14:59:00,
2013-03-19 11:05:00,43.5,32.5,29.74,ENE,70,32.0,37.0,65,0.00,,,0.22,meteohub,2013-03-19 15:05:00,
2013-03-19 11:10:00,43.5,32.5,29.73,ENE,69,32.0,34.0,65,0.00,,,0.22,meteohub,2013-03-19 15:10:00,
2013-03-19 11:15:00,43.5,32.5,29.73,ENE,64,29.0,35.0,65,0.00,,,0.22,meteohub,2013-03-19 15:15:00,
2013-03-19 11:20:00,43.5,32.5,29.73,ENE,66,24.0,35.0,65,0.00,,,0.22,meteohub,2013-03-19 15:20:00,
2013-03-19 11:25:00,43.5,32.5,29.73,ENE,59,21.0,35.0,65,0.00,,,0.22,meteohub,2013-03-19 15:25:00,
2013-03-19 11:30:00,43.5,32.5,29.73,ENE,59,31.0,33.0,65,0.00,,,0.22,meteohub,2013-03-19 15:30:00,
2013-03-19 11:35:00,43.5,32.5,29.73,ENE,59,19.0,33.0,65,0.00,,,0.22,meteohub,2013-03-19 15:35:00,
2013-03-19 11:40:00,43.7,32.7,29.73,ENE,64,23.0,31.0,65,0.00,,,0.22,meteohub,2013-03-19 15:40:00,
2013-03-19 11:45:00,43.7,32.7,29.72,ENE,59,22.0,31.0,65,0.00,,,0.22,meteohub,2013-03-19 15:45:00,
2013-03-19 11:50:00,43.7,32.7,29.71,NE,49,19.0,29.0,65,0.00,,,0.22,meteohub,2013-03-19 15:50:00,
2013-03-19 11:55:00,43.7,32.7,29.70,ENE,63,22.0,29.0,65,0.00,,,0.22,meteohub,2013-03-19 15:55:00,
2013-03-19 12:01:00,43.9,32.9,29.70,ENE,63,18.0,28.0,65,0.00,,,0.22,meteohub,2013-03-19 16:01:00,
2013-03-19 12:06:00,44.1,32.7,29.70,NE,49,18.0,28.0,64,0.00,,,0.22,meteohub,2013-03-19 16:06:00,
2013-03-19 12:11:00,44.1,32.7,29.69,ENE,63,24.0,26.0,64,0.00,,,0.22,meteohub,2013-03-19 16:11:00,
2013-03-19 12:16:00,44.1,32.7,29.68,ENE,59,20.0,28.0,64,0.00,,,0.22,meteohub,2013-03-19 16:16:00,
2013-03-19 12:21:00,44.1,32.7,29.68,ENE,59,21.0,28.0,64,0.00,,,0.22,meteohub,2013-03-19 16:21:00,
2013-03-19 12:26:00,44.2,32.9,29.68,ENE,59,20.0,27.0,64,0.00,,,0.22,meteohub,2013-03-19 16:26:00,
2013-03-19 12:31:00,44.2,32.9,29.68,ENE,59,23.0,25.0,64,0.00,,,0.22,meteohub,2013-03-19 16:31:00,
2013-03-19 12:37:00,44.2,32.9,29.68,ENE,59,17.0,25.0,64,0.00,,,0.22,meteohub,2013-03-19 16:37:00,
2013-03-19 12:42:00,44.2,32.9,29.67,ENE,59,16.0,25.0,64,0.00,,,0.22,meteohub,2013-03-19 16:42:00,
2013-03-19 12:47:00,44.4,33.1,29.66,ENE,63,17.0,25.0,64,0.00,,,0.22,meteohub,2013-03-19 16:47:00,
2013-03-19 12:52:00,44.4,33.4,29.66,NE,40,19.0,24.0,65,0.00,,,0.22,meteohub,2013-03-19 16:52:00,
2013-03-19 12:57:00,44.4,33.4,29.66,ENE,63,16.0,24.0,65,0.00,,,0.22,meteohub,2013-03-19 16:57:00,
2013-03-19 13:02:00,44.4,33.4,29.66,ENE,59,15.0,24.0,65,0.00,,,0.22,meteohub,2013-03-19 17:02:00,
2013-03-19 13:07:00,44.4,33.4,29.66,NE,44,18.0,24.0,65,0.00,,,0.22,meteohub,2013-03-19 17:07:00,
2013-03-19 13:12:00,44.6,33.6,29.67,North,0,0.0,24.0,65,0.00,,,0.22,meteohub,2013-03-19 17:12:00,
2013-03-19 13:17:00,44.6,33.6,29.68,NE,54,8.0,23.0,65,0.00,,,0.22,meteohub,2013-03-19 17:17:00,
2013-03-19 13:22:00,44.4,33.4,29.70,North,0,9.0,23.0,65,0.00,,,0.22,meteohub,2013-03-19 17:22:00,
2013-03-19 13:27:00,44.4,33.1,29.74,WNW,299,19.0,20.0,64,0.00,,,0.22,meteohub,2013-03-19 17:27:00,
2013-03-19 13:32:00,44.4,33.4,29.71,NW,307,9.0,23.0,65,0.00,,,0.22,meteohub,2013-03-19 17:32:00,
2013-03-19 13:37:00,44.4,33.4,29.71,NE,54,11.0,23.0,65,0.00,,,0.22,meteohub,2013-03-19 17:37:00,
2013-03-19 13:42:00,44.4,33.4,29.72,WNW,299,14.0,23.0,65,0.02,,,0.24,meteohub,2013-03-19 17:42:00,
2013-03-19 13:47:00,44.6,33.6,29.71,NNW,330,8.0,17.0,65,0.02,,,0.24,meteohub,2013-03-19 17:47:00,
2013-03-19 13:52:00,44.6,33.6,29.70,NW,319,8.0,17.0,65,0.02,,,0.24,meteohub,2013-03-19 17:52:00,
2013-03-19 13:57:00,44.6,33.6,29.70,NNW,328,13.0,18.0,65,0.02,,,0.24,meteohub,2013-03-19 17:57:00,
2013-03-19 14:03:00,44.6,33.3,29.69,NE,54,8.0,18.0,64,0.03,,,0.25,meteohub,2013-03-19 18:03:00,
2013-03-19 14:08:00,44.6,33.3,29.70,NE,54,9.0,18.0,64,0.03,,,0.25,meteohub,2013-03-19 18:08:00,
2013-03-19 14:13:00,44.6,33.3,29.70,NW,320,16.0,18.0,64,0.03,,,0.25,meteohub,2013-03-19 18:13:00,
2013-03-19 14:18:00,44.6,33.3,29.69,NNW,330,8.0,18.0,64,0.03,,,0.25,meteohub,2013-03-19 18:18:00,
2013-03-19 14:23:00,44.6,33.3,29.68,North,354,10.0,18.0,64,0.03,,,0.25,meteohub,2013-03-19 18:23:00,
2013-03-19 14:28:00,44.6,33.3,29.68,NNW,338,14.0,17.0,64,0.03,,,0.25,meteohub,2013-03-19 18:28:00,
2013-03-19 14:33:00,44.6,33.3,29.66,North,3,11.0,17.0,64,0.03,,,0.25,meteohub,2013-03-19 18:33:00,
2013-03-19 14:38:00,44.8,33.3,29.65,NNE,25,11.0,16.0,64,0.02,,,0.25,meteohub,2013-03-19 18:38:00,
2013-03-19 14:44:00,44.8,33.3,29.63,NNE,27,10.0,18.0,64,0.01,,,0.25,meteohub,2013-03-19 18:44:00,
2013-03-19 14:49:00,44.8,33.3,29.63,NE,54,8.0,20.0,64,0.01,,,0.25,meteohub,2013-03-19 18:49:00,
2013-03-19 14:54:00,44.8,33.3,29.62,NNE,13,12.0,20.0,64,0.01,,,0.25,meteohub,2013-03-19 18:54:00,
2013-03-19 14:59:00,45.0,33.4,29.62,NNE,19,7.0,20.0,64,0.01,,,0.25,meteohub,2013-03-19 18:59:00,
2013-03-19 15:04:00,45.0,33.4,29.62,NE,54,14.0,17.0,64,0.00,,,0.25,meteohub,2013-03-19 19:04:00,
2013-03-19 15:09:00,45.0,33.4,29.62,NNE,27,9.0,17.0,64,0.00,,,0.25,meteohub,2013-03-19 19:09:00,
2013-03-19 15:14:00,45.0,33.4,29.62,NE,49,10.0,17.0,64,0.00,,,0.25,meteohub,2013-03-19 19:14:00,
2013-03-19 15:19:00,45.1,33.3,29.63,NNE,23,11.0,15.0,63,0.00,,,0.25,meteohub,2013-03-19 19:19:00,
2013-03-19 15:24:00,45.3,33.4,29.65,NNW,332,6.0,15.0,63,0.00,,,0.25,meteohub,2013-03-19 19:24:00,
2013-03-19 15:30:00,45.5,33.6,29.65,NNW,327,14.0,16.0,63,0.00,,,0.25,meteohub,2013-03-19 19:30:00,
2013-03-19 15:35:00,45.7,33.8,29.65,NNW,338,12.0,16.0,63,0.00,,,0.25,meteohub,2013-03-19 19:35:00,
2013-03-19 15:40:00,45.7,33.8,29.64,NE,54,8.0,16.0,63,0.00,,,0.25,meteohub,2013-03-19 19:40:00,
2013-03-19 15:45:00,45.9,33.6,29.64,NE,54,11.0,16.0,62,0.00,,,0.25,meteohub,2013-03-19 19:45:00,
2013-03-19 15:50:00,46.0,33.8,29.64,NE,54,10.0,16.0,62,0.00,,,0.25,meteohub,2013-03-19 19:50:00,
2013-03-19 15:55:00,46.2,34.0,29.64,North,350,11.0,14.0,62,0.00,,,0.25,meteohub,2013-03-19 19:55:00,
2013-03-19 16:00:00,46.6,34.3,29.64,NNW,342,8.0,13.0,62,0.00,,,0.25,meteohub,2013-03-19 20:00:00,
2013-03-19 16:06:00,46.6,34.3,29.64,NNW,327,9.0,13.0,62,0.00,,,0.25,meteohub,2013-03-19 20:06:00,
2013-03-19 16:11:00,46.8,34.5,29.65,NNW,348,10.0,13.0,62,0.00,,,0.25,meteohub,2013-03-19 20:11:00,
2013-03-19 16:16:00,46.9,34.5,29.65,NNW,346,6.0,13.0,62,0.00,,,0.25,meteohub,2013-03-19 20:16:00,
2013-03-19 16:21:00,46.9,34.5,29.65,NNW,344,7.0,15.0,62,0.00,,,0.25,meteohub,2013-03-19 20:21:00,
2013-03-19 16:26:00,47.1,34.7,29.64,NE,54,8.0,15.0,62,0.00,,,0.25,meteohub,2013-03-19 20:26:00,
2013-03-19 16:31:00,47.1,34.7,29.64,North,353,6.0,15.0,62,0.00,,,0.25,meteohub,2013-03-19 20:31:00,
2013-03-19 16:36:00,47.5,35.1,29.64,NE,54,9.0,14.0,62,0.00,,,0.25,meteohub,2013-03-19 20:36:00,
2013-03-19 16:42:00,47.5,35.1,29.65,NNW,344,6.0,12.0,62,0.00,,,0.25,meteohub,2013-03-19 20:42:00,
2013-03-19 16:47:00,47.5,35.1,29.65,NNW,335,7.0,12.0,62,0.00,,,0.25,meteohub,2013-03-19 20:47:00,
2013-03-19 16:52:00,47.5,35.1,29.66,NNW,329,4.0,12.0,62,0.00,,,0.25,meteohub,2013-03-19 20:52:00,
2013-03-19 16:57:00,47.5,35.1,29.67,NW,316,7.0,12.0,62,0.00,,,0.25,meteohub,2013-03-19 20:57:00,
2013-03-19 17:02:00,47.5,35.1,29.67,NW,306,9.0,10.0,62,0.00,,,0.25,meteohub,2013-03-19 21:02:00,
2013-03-19 17:07:00,47.5,35.1,29.68,NE,54,5.0,12.0,62,0.00,,,0.25,meteohub,2013-03-19 21:07:00,
2013-03-19 17:12:00,47.5,35.1,29.68,NW,304,6.0,12.0,62,0.00,,,0.25,meteohub,2013-03-19 21:12:00,
2013-03-19 17:17:00,47.5,35.1,29.68,NE,54,10.0,12.0,62,0.00,,,0.25,meteohub,2013-03-19 21:17:00,
2013-03-19 17:22:00,47.5,35.1,29.68,NE,54,8.0,13.0,62,0.00,,,0.25,meteohub,2013-03-19 21:22:00,
2013-03-19 17:28:00,47.5,35.1,29.68,WNW,291,12.0,13.0,62,0.00,,,0.25,meteohub,2013-03-19 21:28:00,
2013-03-19 17:33:00,47.5,35.1,29.69,WNW,288,10.0,14.0,62,0.00,,,0.25,meteohub,2013-03-19 21:33:00,
2013-03-19 17:38:00,47.5,35.1,29.69,WNW,282,11.0,15.0,62,0.00,,,0.25,meteohub,2013-03-19 21:38:00,
2013-03-19 17:43:00,47.5,35.1,29.69,NE,54,11.0,17.0,62,0.00,,,0.25,meteohub,2013-03-19 21:43:00,
2013-03-19 17:49:00,47.5,35.1,29.70,WNW,284,8.0,20.0,62,0.00,,,0.25,meteohub,2013-03-19 21:49:00,
2013-03-19 17:54:00,47.5,35.1,29.70,WNW,286,14.0,21.0,62,0.00,,,0.25,meteohub,2013-03-19 21:54:00,
2013-03-19 17:59:00,47.5,35.1,29.70,WNW,286,11.0,21.0,62,0.00,,,0.25,meteohub,2013-03-19 21:59:00,
2013-03-19 18:04:00,47.5,35.1,29.69,WNW,285,9.0,21.0,62,0.00,,,0.25,meteohub,2013-03-19 22:04:00,
2013-03-19 18:09:00,47.5,35.1,29.69,West,277,10.0,21.0,62,0.00,,,0.25,meteohub,2013-03-19 22:09:00,
2013-03-19 18:14:00,47.7,35.6,29.69,WNW,288,15.0,20.0,63,0.00,,,0.25,meteohub,2013-03-19 22:14:00,
2013-03-19 18:20:00,47.8,35.4,29.70,WNW,282,16.0,19.0,62,0.00,,,0.25,meteohub,2013-03-19 22:20:00,
2013-03-19 18:25:00,48.0,35.6,29.70,WNW,297,11.0,22.0,62,0.00,,,0.25,meteohub,2013-03-19 22:25:00,
2013-03-19 18:30:00,48.0,35.6,29.71,WNW,286,8.0,22.0,62,0.00,,,0.25,meteohub,2013-03-19 22:30:00,
2013-03-19 18:35:00,48.0,35.6,29.71,WNW,292,13.0,22.0,62,0.00,,,0.25,meteohub,2013-03-19 22:35:00,
2013-03-19 18:40:00,48.0,35.6,29.71,WNW,292,16.0,18.0,62,0.00,,,0.25,meteohub,2013-03-19 22:40:00,
2013-03-19 18:45:00,48.0,35.6,29.71,West,272,14.0,19.0,62,0.00,,,0.25,meteohub,2013-03-19 22:45:00,
2013-03-19 18:50:00,48.0,35.6,29.70,WNW,295,9.0,19.0,62,0.00,,,0.25,meteohub,2013-03-19 22:50:00,
2013-03-19 18:55:00,48.0,36.0,29.70,NE,54,14.0,18.0,63,0.00,,,0.25,meteohub,2013-03-19 22:55:00,
2013-03-19 19:00:00,47.8,35.8,29.70,WNW,302,8.0,18.0,63,0.00,,,0.25,meteohub,2013-03-19 23:00:00,
2013-03-19 19:05:00,47.8,35.4,29.71,NW,312,9.0,18.0,62,0.00,,,0.25,meteohub,2013-03-19 23:05:00,
2013-03-19 19:11:00,47.8,35.8,29.71,WNW,282,14.0,17.0,63,0.00,,,0.25,meteohub,2013-03-19 23:11:00,
2013-03-19 19:16:00,47.8,35.4,29.71,WNW,293,8.0,17.0,62,0.00,,,0.25,meteohub,2013-03-19 23:16:00,
2013-03-19 19:21:00,47.7,35.2,29.71,WNW,297,9.0,17.0,62,0.00,,,0.25,meteohub,2013-03-19 23:21:00,
2013-03-19 19:26:00,47.7,35.2,29.72,WNW,285,10.0,16.0,62,0.00,,,0.25,meteohub,2013-03-19 23:26:00,
2013-03-19 19:31:00,47.7,35.2,29.73,WNW,298,12.0,19.0,62,0.00,,,0.25,meteohub,2013-03-19 23:31:00,
2013-03-19 19:37:00,47.7,35.2,29.73,West,274,11.0,19.0,62,0.00,,,0.25,meteohub,2013-03-19 23:37:00,
2013-03-19 19:42:00,47.5,35.1,29.74,WNW,290,14.0,19.0,62,0.00,,,0.25,meteohub,2013-03-19 23:42:00,
2013-03-19 19:47:00,47.5,35.1,29.74,NW,305,10.0,19.0,62,0.00,,,0.25,meteohub,2013-03-19 23:47:00,
2013-03-19 19:52:00,47.5,35.1,29.75,NE,54,11.0,19.0,62,0.00,,,0.25,meteohub,2013-03-19 23:52:00,
2013-03-19 19:57:00,47.5,35.1,29.75,NE,54,13.0,21.0,62,0.00,,,0.25,meteohub,2013-03-19 23:57:00,
2013-03-19 20:02:00,47.5,35.1,29.75,WNW,289,7.0,21.0,62,0.00,,,0.25,meteohub,2013-03-20 00:02:00,
2013-03-19 20:07:00,47.5,35.1,29.75,NE,54,17.0,21.0,62,0.00,,,0.25,meteohub,2013-03-20 00:07:00,
2013-03-19 20:12:00,47.5,35.1,29.75,West,281,10.0,20.0,62,0.00,,,0.25,meteohub,2013-03-20 00:12:00,
2013-03-19 20:17:00,47.1,34.7,29.75,NE,54,13.0,20.0,62,0.00,,,0.25,meteohub,2013-03-20 00:17:00,
2013-03-19 20:22:00,47.1,34.7,29.75,NW,324,9.0,20.0,62,0.00,,,0.25,meteohub,2013-03-20 00:22:00,
2013-03-19 20:27:00,47.1,34.7,29.75,NE,54,10.0,20.0,62,0.00,,,0.25,meteohub,2013-03-20 00:27:00,
2013-03-19 20:32:00,47.1,34.7,29.75,WNW,296,12.0,19.0,62,0.00,,,0.25,meteohub,2013-03-20 00:32:00,
2013-03-19 20:37:00,47.1,34.7,29.75,NE,54,10.0,19.0,62,0.00,,,0.25,meteohub,2013-03-20 00:37:00,
2013-03-19 20:42:00,47.1,34.7,29.75,WNW,300,8.0,19.0,62,0.00,,,0.25,meteohub,2013-03-20 00:42:00,
2013-03-19 20:47:00,46.9,34.5,29.75,NW,324,10.0,16.0,62,0.00,,,0.25,meteohub,2013-03-20 00:47:00,
2013-03-19 20:52:00,46.9,34.5,29.75,WNW,290,9.0,16.0,62,0.00,,,0.25,meteohub,2013-03-20 00:52:00,
2013-03-19 20:57:00,46.9,34.5,29.75,NW,310,10.0,16.0,62,0.00,,,0.25,meteohub,2013-03-20 00:57:00,
2013-03-19 21:03:00,46.8,34.5,29.75,West,280,11.0,16.0,62,0.00,,,0.25,meteohub,2013-03-20 01:03:00,
2013-03-19 21:08:00,46.8,34.5,29.75,WNW,296,10.0,16.0,62,0.00,,,0.25,meteohub,2013-03-20 01:08:00,
2013-03-19 21:13:00,46.8,34.0,29.75,NE,54,7.0,15.0,61,0.00,,,0.25,meteohub,2013-03-20 01:13:00,
2013-03-19 21:18:00,46.6,33.8,29.74,NE,54,7.0,16.0,61,0.00,,,0.25,meteohub,2013-03-20 01:18:00,
2013-03-19 21:23:00,46.6,33.8,29.74,WNW,298,6.0,16.0,61,0.00,,,0.25,meteohub,2013-03-20 01:23:00,
2013-03-19 21:28:00,46.6,33.8,29.75,WNW,300,10.0,15.0,61,0.00,,,0.25,meteohub,2013-03-20 01:28:00,
2013-03-19 21:33:00,46.6,33.8,29.75,West,278,11.0,14.0,61,0.00,,,0.25,meteohub,2013-03-20 01:33:00,
2013-03-19 21:38:00,46.6,33.8,29.75,WNW,295,6.0,14.0,61,0.00,,,0.25,meteohub,2013-03-20 01:38:00,
2013-03-19 21:43:00,46.6,33.8,29.75,WNW,294,5.0,14.0,61,0.00,,,0.25,meteohub,2013-03-20 01:43:00,
2013-03-19 21:48:00,46.2,33.4,29.75,WNW,300,8.0,14.0,61,0.00,,,0.25,meteohub,2013-03-20 01:48:00,
2013-03-19 21:54:00,46.2,33.4,29.75,NW,312,12.0,14.0,61,0.00,,,0.25,meteohub,2013-03-20 01:54:00,
2013-03-19 21:59:00,46.2,33.4,29.75,NW,312,7.0,15.0,61,0.00,,,0.25,meteohub,2013-03-20 01:59:00,
2013-03-19 22:04:00,46.2,33.4,29.75,WNW,295,10.0,15.0,61,0.00,,,0.25,meteohub,2013-03-20 02:04:00,
2013-03-19 22:09:00,46.2,33.4,29.76,NW,308,8.0,15.0,61,0.00,,,0.25,meteohub,2013-03-20 02:09:00,
2013-03-19 22:14:00,46.2,33.4,29.76,NW,306,9.0,15.0,61,0.00,,,0.25,meteohub,2013-03-20 02:14:00,
2013-03-19 22:19:00,46.0,33.3,29.76,NW,315,9.0,15.0,61,0.00,,,0.25,meteohub,2013-03-20 02:19:00,
2013-03-19 22:24:00,46.0,33.3,29.75,WNW,283,6.0,18.0,61,0.00,,,0.25,meteohub,2013-03-20 02:24:00,
2013-03-19 22:29:00,46.0,33.3,29.75,NE,54,9.0,18.0,61,0.00,,,0.25,meteohub,2013-03-20 02:29:00,
2013-03-19 22:34:00,45.9,33.3,29.75,West,274,7.0,18.0,61,0.00,,,0.25,meteohub,2013-03-20 02:34:00,
2013-03-19 22:39:00,45.9,33.3,29.76,WNW,284,8.0,13.0,61,0.00,,,0.25,meteohub,2013-03-20 02:39:00,
2013-03-19 22:44:00,45.9,33.3,29.76,NE,54,12.0,13.0,61,0.00,,,0.25,meteohub,2013-03-20 02:44:00,
2013-03-19 22:50:00,45.7,33.1,29.76,West,279,12.0,13.0,61,0.00,,,0.25,meteohub,2013-03-20 02:50:00,
2013-03-19 22:55:00,45.7,33.1,29.76,West,276,10.0,15.0,61,0.00,,,0.25,meteohub,2013-03-20 02:55:00,
2013-03-19 23:00:00,45.7,33.1,29.76,West,272,14.0,15.0,61,0.00,,,0.25,meteohub,2013-03-20 03:00:00,
2013-03-19 23:05:00,45.7,33.1,29.76,West,281,9.0,14.0,61,0.00,,,0.25,meteohub,2013-03-20 03:05:00,
2013-03-19 23:10:00,45.7,33.1,29.76,WNW,282,7.0,15.0,61,0.00,,,0.25,meteohub,2013-03-20 03:10:00,
2013-03-19 23:15:00,45.7,33.1,29.76,West,269,13.0,16.0,61,0.00,,,0.25,meteohub,2013-03-20 03:15:00,
2013-03-19 23:20:00,45.5,32.9,29.76,NE,54,10.0,16.0,61,0.00,,,0.25,meteohub,2013-03-20 03:20:00,
2013-03-19 23:25:00,45.5,32.9,29.75,WNW,283,15.0,17.0,61,0.00,,,0.25,meteohub,2013-03-20 03:25:00,
2013-03-19 23:30:00,45.5,32.9,29.75,NE,54,12.0,19.0,61,0.00,,,0.25,meteohub,2013-03-20 03:30:00,
2013-03-19 23:36:00,45.3,32.7,29.75,WNW,285,12.0,19.0,61,0.00,,,0.25,meteohub,2013-03-20 03:36:00,
2013-03-19 23:41:00,45.3,32.7,29.76,WNW,289,10.0,19.0,61,0.00,,,0.25,meteohub,2013-03-20 03:41:00,
2013-03-19 23:46:00,45.3,32.7,29.76,NE,54,14.0,18.0,61,0.00,,,0.25,meteohub,2013-03-20 03:46:00,
2013-03-19 23:52:00,45.1,32.5,29.77,WNW,295,12.0,20.0,61,0.00,,,0.25,meteohub,2013-03-20 03:52:00,
2013-03-19 23:57:00,45.1,32.5,29.77,NE,54,12.0,20.0,61,0.00,,,0.25,meteohub,2013-03-20 03:57:00,